createdAt,value
2018-03-27T00:00:56.324Z,15.87
2018-03-27T00:03:23.826Z,17.33
2018-03-27T00:05:52.142Z,16.70
2018-03-27T00:08:19.684Z,16.60
2018-03-27T00:10:47.161Z,16.40
2018-03-27T00:13:14.635Z,15.77
2018-03-27T00:15:42.119Z,16.03
2018-03-27T00:18:09.584Z,16.83
2018-03-27T00:20:37.852Z,17.23
2018-03-27T00:23:05.320Z,17.37
2018-03-27T00:25:33.557Z,17.13
2018-03-27T00:28:12.862Z,16.97
2018-03-27T00:30:52.204Z,17.70
2018-03-27T00:33:31.596Z,16.60
2018-03-27T00:36:11.821Z,16.10
2018-03-27T00:38:51.143Z,16.57
2018-03-27T00:41:20.044Z,15.67
2018-03-27T00:43:47.551Z,16.07
2018-03-27T00:46:15.060Z,16.17
2018-03-27T00:48:42.615Z,16.93
2018-03-27T00:51:10.102Z,16.77
2018-03-27T00:53:37.683Z,17.13
2018-03-27T00:56:05.928Z,17.00
2018-03-27T00:58:33.399Z,17.43
2018-03-27T01:01:01.082Z,17.53
2018-03-27T01:03:29.310Z,17.60
2018-03-27T01:05:56.781Z,18.43
2018-03-27T01:08:24.247Z,17.60
2018-03-27T01:10:51.735Z,17.73
2018-03-27T01:13:19.961Z,17.90
2018-03-27T01:15:47.443Z,17.97
2018-03-27T01:18:15.644Z,17.37
2018-03-27T01:20:43.911Z,18.00
2018-03-27T01:23:12.138Z,18.23
2018-03-27T01:25:39.604Z,19.13
2018-03-27T01:28:07.106Z,18.07
2018-03-27T01:30:34.628Z,17.90
2018-03-27T01:33:02.113Z,18.50
2018-03-27T01:35:29.616Z,18.53
2018-03-27T01:37:57.127Z,19.33
2018-03-27T01:40:24.640Z,18.73
2018-03-27T01:42:52.128Z,19.63
2018-03-27T01:45:19.648Z,19.70
2018-03-27T01:47:47.144Z,18.43
2018-03-27T01:50:14.718Z,19.30
2018-03-27T01:52:42.280Z,19.03
2018-03-27T01:55:09.796Z,20.63
2018-03-27T01:57:37.274Z,20.30
2018-03-27T02:00:04.768Z,19.50
2018-03-27T02:02:33.109Z,20.10
2018-03-27T02:05:00.575Z,20.47
2018-03-27T02:07:28.086Z,20.93
2018-03-27T02:09:55.548Z,21.13
2018-03-27T02:12:29.098Z,20.83
2018-03-27T02:15:02.271Z,20.23
2018-03-27T02:17:35.476Z,21.40
2018-03-27T02:20:08.555Z,20.87
2018-03-27T02:22:36.625Z,20.93
2018-03-27T02:25:04.180Z,21.47
2018-03-27T02:27:31.648Z,22.73
2018-03-27T02:29:59.131Z,21.50
2018-03-27T02:32:26.640Z,21.40
2018-03-27T02:34:54.162Z,21.23
2018-03-27T02:37:21.582Z,22.13
2018-03-27T02:39:49.066Z,22.07
2018-03-27T02:42:16.649Z,21.60
2018-03-27T02:44:44.955Z,23.03
2018-03-27T02:47:12.462Z,22.77
2018-03-27T02:49:41.497Z,21.77
2018-03-27T02:52:09.010Z,22.70
2018-03-27T02:54:36.677Z,22.43
2018-03-27T02:57:04.133Z,22.43
2018-03-27T02:59:31.631Z,21.73
2018-03-27T03:01:59.104Z,23.20
2018-03-27T03:04:26.572Z,23.43
2018-03-27T03:06:54.054Z,24.13
2018-03-27T03:09:21.736Z,21.60
2018-03-27T03:11:49.216Z,23.03
2018-03-27T03:14:16.731Z,24.13
2018-03-27T03:16:44.205Z,24.40
2018-03-27T03:19:11.718Z,24.93
2018-03-27T03:21:39.917Z,23.47
2018-03-27T03:24:07.411Z,24.83
2018-03-27T03:26:34.882Z,23.67
2018-03-27T03:29:02.346Z,24.50
2018-03-27T03:31:29.823Z,26.43
2018-03-27T03:33:57.301Z,25.37
2018-03-27T03:36:24.799Z,24.83
2018-03-27T03:38:53.047Z,25.73
2018-03-27T03:41:20.525Z,26.47
2018-03-27T03:43:49.276Z,25.70
2018-03-27T03:46:16.752Z,26.43
2018-03-27T03:48:44.244Z,25.80
2018-03-27T03:51:12.472Z,27.17
2018-03-27T03:53:39.995Z,27.07
2018-03-27T03:56:07.471Z,27.47
2018-03-27T03:58:34.976Z,28.10
2018-03-27T04:01:02.497Z,28.47
2018-03-27T04:03:30.005Z,27.07
2018-03-27T04:05:57.515Z,27.63
2018-03-27T04:08:25.013Z,28.17
2018-03-27T04:10:52.535Z,29.77
2018-03-27T04:13:20.069Z,29.13
2018-03-27T04:15:47.572Z,29.50
2018-03-27T04:18:15.109Z,28.70
2018-03-27T04:20:42.588Z,27.63
2018-03-27T04:23:10.126Z,27.83
2018-03-27T04:25:37.729Z,29.43
2018-03-27T04:28:05.232Z,29.43
2018-03-27T04:30:32.695Z,28.40
2018-03-27T04:33:00.161Z,28.40
2018-03-27T04:35:27.629Z,29.70
2018-03-27T04:37:55.131Z,29.53
2018-03-27T04:40:23.383Z,29.33
2018-03-27T04:42:50.848Z,30.00
2018-03-27T04:45:18.923Z,31.03
2018-03-27T04:47:46.409Z,30.13
2018-03-27T04:50:14.635Z,30.90
2018-03-27T04:52:42.206Z,31.10
2018-03-27T04:55:09.701Z,31.00
2018-03-27T04:57:37.928Z,32.17
2018-03-27T05:00:05.424Z,34.13
2018-03-27T05:02:33.659Z,31.80
2018-03-27T05:05:01.153Z,32.80
2018-03-27T05:07:28.623Z,32.30
2018-03-27T05:09:56.130Z,32.03
2018-03-27T05:12:23.637Z,33.70
2018-03-27T05:14:51.879Z,30.57
2018-03-27T05:17:19.348Z,33.80
2018-03-27T05:19:46.830Z,34.07
2018-03-27T05:22:15.068Z,33.70
2018-03-27T05:24:42.568Z,31.27
2018-03-27T05:27:10.086Z,32.73
2018-03-27T05:29:37.581Z,31.40
2018-03-27T05:32:05.896Z,31.67
2018-03-27T05:34:33.365Z,31.23
2018-03-27T05:37:00.856Z,31.27
2018-03-27T05:39:28.311Z,29.93
2018-03-27T05:41:55.810Z,30.43
2018-03-27T05:44:23.316Z,29.30
2018-03-27T05:46:50.814Z,27.97
2018-03-27T05:49:18.314Z,28.47
2018-03-27T05:51:45.924Z,27.37
2018-03-27T05:54:13.376Z,25.93
2018-03-27T05:56:41.638Z,27.07
2018-03-27T05:59:09.146Z,24.97
2018-03-27T06:01:36.660Z,24.57
2018-03-27T06:04:04.149Z,23.67
2018-03-27T06:06:31.620Z,23.90
2018-03-27T06:08:59.165Z,23.27
2018-03-27T06:11:27.413Z,21.80
2018-03-27T06:13:55.695Z,23.23
2018-03-27T06:16:24.005Z,22.30
2018-03-27T06:18:51.625Z,22.10
2018-03-27T06:21:19.267Z,22.10
2018-03-27T06:23:46.784Z,21.97
2018-03-27T06:26:14.238Z,22.47
2018-03-27T06:28:41.721Z,22.30
2018-03-27T06:31:09.431Z,21.87
2018-03-27T06:33:37.698Z,23.97
2018-03-27T06:36:05.189Z,23.63
2018-03-27T06:38:33.433Z,22.63
2018-03-27T06:41:00.946Z,22.60
2018-03-27T06:43:28.467Z,22.20
2018-03-27T06:45:56.716Z,22.60
2018-03-27T06:48:24.183Z,23.10
2018-03-27T06:50:51.698Z,22.63
2018-03-27T06:53:19.236Z,22.17
2018-03-27T06:55:46.753Z,23.57
2018-03-27T06:58:14.311Z,23.70
2018-03-27T07:00:41.808Z,22.93
2018-03-27T07:03:09.326Z,24.00
2018-03-27T07:05:36.835Z,22.90
2018-03-27T07:08:05.062Z,23.73
2018-03-27T07:10:32.546Z,22.77
2018-03-27T07:13:00.789Z,24.43
2018-03-27T07:15:28.384Z,24.07
2018-03-27T07:17:56.510Z,23.27
2018-03-27T07:20:23.988Z,22.97
2018-03-27T07:22:51.473Z,23.23
2018-03-27T07:25:19.722Z,25.00
2018-03-27T07:27:47.179Z,24.67
2018-03-27T07:30:14.704Z,24.00
2018-03-27T07:32:42.203Z,23.70
2018-03-27T07:35:09.696Z,23.97
2018-03-27T07:37:37.193Z,25.00
2018-03-27T07:40:04.737Z,25.97
2018-03-27T07:42:32.215Z,24.43
2018-03-27T07:44:59.757Z,23.40
2018-03-27T07:47:27.231Z,22.53
2018-03-27T07:49:54.708Z,22.50
2018-03-27T07:52:22.222Z,22.23
2018-03-27T07:54:49.690Z,20.93
2018-03-27T07:57:17.159Z,21.53
2018-03-27T07:59:44.636Z,21.97
2018-03-27T08:02:12.127Z,22.80
2018-03-27T08:04:40.992Z,23.80
2018-03-27T08:07:08.517Z,25.77
2018-03-27T08:09:35.979Z,25.20
2018-03-27T08:12:03.474Z,25.47
2018-03-27T08:14:30.964Z,27.00
2018-03-27T08:16:58.546Z,28.43
2018-03-27T08:19:26.172Z,29.80
2018-03-27T08:21:54.392Z,31.73
2018-03-27T08:24:21.987Z,32.23
2018-03-27T08:26:50.835Z,34.90
2018-03-27T08:29:18.351Z,36.43
2018-03-27T08:31:46.570Z,33.73
2018-03-27T08:34:14.065Z,38.23
2018-03-27T08:36:41.533Z,38.37
2018-03-27T08:39:09.044Z,36.93
2018-03-27T08:41:36.544Z,39.17
2018-03-27T08:44:04.044Z,37.40
2018-03-27T08:46:31.615Z,39.03
2018-03-27T08:48:59.167Z,40.57
2018-03-27T08:51:26.734Z,40.10
2018-03-27T08:53:54.281Z,40.47
2018-03-27T08:56:21.858Z,43.33
2018-03-27T08:58:49.486Z,43.13
2018-03-27T09:01:17.790Z,44.37
2018-03-27T09:03:45.300Z,45.33
2018-03-27T09:06:12.792Z,42.40
2018-03-27T09:08:40.306Z,43.40
2018-03-27T09:11:07.819Z,46.07
2018-03-27T09:13:35.301Z,46.00
2018-03-27T09:16:02.808Z,47.13
2018-03-27T09:18:31.051Z,46.43
2018-03-27T09:20:58.548Z,48.43
2018-03-27T09:23:26.803Z,46.53
2018-03-27T09:25:54.272Z,47.03
2018-03-27T09:28:22.567Z,49.90
2018-03-27T09:30:50.894Z,49.60
2018-03-27T09:33:18.379Z,47.87
2018-03-27T09:35:45.858Z,50.50
2018-03-27T09:38:14.116Z,47.27
2018-03-27T09:40:41.659Z,49.13
2018-03-27T09:43:09.145Z,49.87
2018-03-27T09:45:37.419Z,51.43
2018-03-27T09:48:05.673Z,49.37
2018-03-27T09:50:33.218Z,55.13
2018-03-27T09:53:00.689Z,51.60
2018-03-27T09:55:28.179Z,54.07
2018-03-27T09:57:56.456Z,53.07
2018-03-27T10:00:30.290Z,51.10
2018-03-27T10:02:57.773Z,54.27
2018-03-27T10:05:25.372Z,52.53
2018-03-27T10:07:53.611Z,54.57
2018-03-27T10:10:21.099Z,54.40
2018-03-27T10:12:48.706Z,54.17
2018-03-27T10:15:16.204Z,57.67
2018-03-27T10:17:43.722Z,57.90
2018-03-27T10:20:11.207Z,57.07
2018-03-27T10:22:38.770Z,57.87
2018-03-27T10:25:06.248Z,59.23
2018-03-27T10:27:33.725Z,57.20
2018-03-27T10:30:01.988Z,59.50
2018-03-27T10:32:29.451Z,55.60
2018-03-27T10:34:56.965Z,58.30
2018-03-27T10:37:24.442Z,58.73
2018-03-27T10:39:51.948Z,56.83
2018-03-27T10:42:19.449Z,57.37
2018-03-27T10:44:46.947Z,58.70
2018-03-27T10:47:15.171Z,60.00
2018-03-27T10:49:42.662Z,59.40
2018-03-27T10:52:10.182Z,55.63
2018-03-27T10:54:37.667Z,57.23
2018-03-27T10:57:05.168Z,56.17
2018-03-27T10:59:32.678Z,55.77
2018-03-27T11:02:00.161Z,55.20
2018-03-27T11:04:27.695Z,58.13
2018-03-27T11:06:55.135Z,57.30
2018-03-27T11:09:22.623Z,51.50
2018-03-27T11:11:50.121Z,53.43
2018-03-27T11:14:17.639Z,53.53
2018-03-27T11:16:45.150Z,52.17
2018-03-27T11:19:12.598Z,53.83
2018-03-27T11:21:40.093Z,51.80
2018-03-27T11:24:08.008Z,46.07
2018-03-27T11:26:36.252Z,42.90
2018-03-27T11:29:03.794Z,39.43
2018-03-27T11:31:31.448Z,42.30
2018-03-27T11:33:58.964Z,51.27
2018-03-27T11:36:27.257Z,47.17
2018-03-27T11:38:55.557Z,41.83
2018-03-27T11:41:23.030Z,39.50
2018-03-27T11:43:50.508Z,33.67
2018-03-27T11:46:17.984Z,38.67
2018-03-27T11:48:45.475Z,37.30
2018-03-27T11:51:12.942Z,41.80
2018-03-27T11:53:40.436Z,35.67
2018-03-27T11:56:07.925Z,38.53
2018-03-27T11:58:35.417Z,30.70
2018-03-27T12:01:02.904Z,24.10
2018-03-27T12:03:30.387Z,24.63
2018-03-27T12:05:57.911Z,18.53
2018-03-27T12:08:25.416Z,15.43
2018-03-27T12:10:52.926Z,16.27
2018-03-27T12:13:20.416Z,19.60
2018-03-27T12:15:48.623Z,16.23
2018-03-27T12:18:16.881Z,15.47
2018-03-27T12:20:45.157Z,19.73
2018-03-27T12:23:12.687Z,20.37
2018-03-27T12:25:40.157Z,22.43
2018-03-27T12:28:07.673Z,24.07
2018-03-27T12:30:35.182Z,25.07
2018-03-27T12:33:02.700Z,23.40
2018-03-27T12:35:30.198Z,22.63
2018-03-27T12:37:57.677Z,24.20
2018-03-27T12:40:25.936Z,25.03
2018-03-27T12:42:53.447Z,24.27
2018-03-27T12:45:20.960Z,23.70
2018-03-27T12:47:48.444Z,22.00
2018-03-27T12:50:16.727Z,21.27
2018-03-27T12:52:44.234Z,16.83
2018-03-27T12:55:11.724Z,21.20
2018-03-27T12:57:40.037Z,21.07
2018-03-27T13:00:08.254Z,21.50
2018-03-27T13:02:36.684Z,20.07
2018-03-27T13:05:04.177Z,19.20
2018-03-27T13:07:32.263Z,19.07
2018-03-27T13:09:59.755Z,19.80
2018-03-27T13:12:27.234Z,19.27
2018-03-27T13:14:54.709Z,18.07
2018-03-27T13:17:22.204Z,18.97
2018-03-27T13:19:49.716Z,20.67
2018-03-27T13:22:17.335Z,20.63
2018-03-27T13:24:45.698Z,20.30
2018-03-27T13:27:13.188Z,20.50
2018-03-27T13:29:40.667Z,19.93
2018-03-27T13:32:08.171Z,20.43
2018-03-27T13:34:35.658Z,21.03
2018-03-27T13:37:03.899Z,21.53
2018-03-27T13:39:31.371Z,21.07
2018-03-27T13:41:59.631Z,21.00
2018-03-27T13:44:27.086Z,17.87
2018-03-27T13:46:54.575Z,17.50
2018-03-27T13:49:22.830Z,17.23
2018-03-27T13:51:50.426Z,16.63
2018-03-27T13:54:18.693Z,16.13
2018-03-27T13:56:46.940Z,16.83
2018-03-27T13:59:14.560Z,18.20
2018-03-27T14:01:42.045Z,17.13
2018-03-27T14:04:09.575Z,17.40
2018-03-27T14:06:37.056Z,17.80
2018-03-27T14:09:05.282Z,18.03
2018-03-27T14:11:33.588Z,17.97
2018-03-27T14:14:01.086Z,16.90
2018-03-27T14:16:28.583Z,16.17
2018-03-27T14:18:56.095Z,16.70
2018-03-27T14:21:23.642Z,17.87
2018-03-27T14:23:51.128Z,17.00
2018-03-27T14:26:18.659Z,16.90
2018-03-27T14:28:46.128Z,16.90
2018-03-27T14:31:13.616Z,17.50
2018-03-27T14:33:41.220Z,20.83
2018-03-27T14:36:08.727Z,19.87
2018-03-27T14:38:36.212Z,23.93
2018-03-27T14:41:04.533Z,23.87
2018-03-27T14:43:32.040Z,26.23
2018-03-27T14:46:00.292Z,25.60
2018-03-27T14:48:27.773Z,25.33
2018-03-27T14:50:56.017Z,24.70
2018-03-27T14:53:23.468Z,25.40
2018-03-27T14:55:51.066Z,26.90
2018-03-27T14:58:19.295Z,24.17
2018-03-27T15:00:46.918Z,26.00
2018-03-27T15:03:14.392Z,25.33
2018-03-27T15:05:41.926Z,25.43
2018-03-27T15:08:10.384Z,25.27
2018-03-27T15:10:37.871Z,25.30
2018-03-27T15:13:06.138Z,25.63
2018-03-27T15:15:34.401Z,23.90
2018-03-27T15:18:01.945Z,24.87
2018-03-27T15:20:29.617Z,26.47
2018-03-27T15:22:57.126Z,25.40
2018-03-27T15:25:25.329Z,26.50
2018-03-27T15:27:52.812Z,26.67
2018-03-27T15:30:20.275Z,26.77
2018-03-27T15:32:48.528Z,25.90
2018-03-27T15:35:16.001Z,25.80
2018-03-27T15:37:43.501Z,26.27
2018-03-27T15:40:10.999Z,26.07
2018-03-27T15:42:38.541Z,26.70
2018-03-27T15:45:06.017Z,26.53
2018-03-27T15:47:33.545Z,25.80
2018-03-27T15:50:01.031Z,27.67
2018-03-27T15:52:28.520Z,26.77
2018-03-27T15:54:56.026Z,27.73
2018-03-27T15:57:23.625Z,27.00
2018-03-27T15:59:51.135Z,26.93
2018-03-27T16:02:18.645Z,27.43
2018-03-27T16:04:46.289Z,26.87
2018-03-27T16:07:13.841Z,27.60
2018-03-27T16:09:41.349Z,27.03
2018-03-27T16:12:09.567Z,27.43
2018-03-27T16:14:37.061Z,27.37
2018-03-27T16:17:04.558Z,28.63
2018-03-27T16:19:32.071Z,26.93
2018-03-27T16:21:59.570Z,27.77
2018-03-27T16:24:27.098Z,26.90
2018-03-27T16:26:54.592Z,27.57
2018-03-27T16:29:22.097Z,27.07
2018-03-27T16:31:49.596Z,26.27
2018-03-27T16:34:17.880Z,26.30
2018-03-27T16:36:45.344Z,21.80
2018-03-27T16:39:12.819Z,20.90
2018-03-27T16:41:40.340Z,19.77
2018-03-27T16:44:08.571Z,20.87
2018-03-27T16:46:36.071Z,20.53
2018-03-27T16:49:03.537Z,19.27
2018-03-27T16:51:31.801Z,18.07
2018-03-27T16:53:59.277Z,19.40
2018-03-27T16:56:27.599Z,18.23
2018-03-27T16:58:55.075Z,16.30
2018-03-27T17:01:22.597Z,17.80
2018-03-27T17:03:50.064Z,17.50
2018-03-27T17:06:17.565Z,17.17
2018-03-27T17:08:45.072Z,16.60
2018-03-27T17:11:12.580Z,17.43
2018-03-27T17:13:40.086Z,17.03
2018-03-27T17:16:07.637Z,17.43
2018-03-27T17:18:35.083Z,17.27
2018-03-27T17:21:02.588Z,16.07
2018-03-27T17:23:30.091Z,17.73
2018-03-27T17:25:58.344Z,16.63
2018-03-27T17:28:26.512Z,17.37
2018-03-27T17:30:54.022Z,17.03
2018-03-27T17:33:21.545Z,17.67
2018-03-27T17:35:49.028Z,17.03
2018-03-27T17:38:17.345Z,17.77
2018-03-27T17:40:44.866Z,16.50
2018-03-27T17:43:13.126Z,17.00
2018-03-27T17:45:41.417Z,16.40
2018-03-27T17:48:09.651Z,17.10
2018-03-27T17:50:37.128Z,17.03
2018-03-27T17:53:04.662Z,16.93
2018-03-27T17:55:32.233Z,16.97
2018-03-27T17:57:59.700Z,17.40
2018-03-27T18:00:27.702Z,17.30
2018-03-27T18:02:55.939Z,17.90
2018-03-27T18:05:23.545Z,16.70
2018-03-27T18:07:51.228Z,18.40
2018-03-27T18:10:18.744Z,18.53
2018-03-27T18:12:47.008Z,19.13
2018-03-27T18:15:14.472Z,18.60
2018-03-27T18:17:42.768Z,19.93
2018-03-27T18:20:11.099Z,19.70
2018-03-27T18:22:38.550Z,19.53
2018-03-27T18:25:06.084Z,20.40
2018-03-27T18:27:33.646Z,19.57
2018-03-27T18:30:01.164Z,20.43
2018-03-27T18:32:28.672Z,20.27
2018-03-27T18:34:56.176Z,19.27
2018-03-27T18:37:23.735Z,21.53
2018-03-27T18:39:51.198Z,21.37
2018-03-27T18:42:18.661Z,21.00
2018-03-27T18:44:46.926Z,21.87
2018-03-27T18:47:14.438Z,22.23
2018-03-27T18:49:41.917Z,22.03
2018-03-27T18:52:09.399Z,22.97
2018-03-27T18:54:40.616Z,22.97
2018-03-27T18:57:08.236Z,23.43
2018-03-27T18:59:36.484Z,23.30
2018-03-27T19:02:03.997Z,24.50
2018-03-27T19:04:31.494Z,23.30
2018-03-27T19:06:59.010Z,23.33
2018-03-27T19:09:26.483Z,22.90
2018-03-27T19:11:53.969Z,23.53
2018-03-27T19:14:21.449Z,23.43
2018-03-27T19:16:49.704Z,23.67
2018-03-27T19:19:17.188Z,24.97
2018-03-27T19:21:45.416Z,25.37
2018-03-27T19:24:12.922Z,26.00
2018-03-27T19:26:41.166Z,26.37
2018-03-27T19:29:08.663Z,27.10
2018-03-27T19:34:10.097Z,26.97
2018-03-27T19:36:37.611Z,28.20
2018-03-27T19:39:05.837Z,26.77
2018-03-27T19:41:33.303Z,27.37
2018-03-27T19:44:00.814Z,29.97
2018-03-27T19:46:28.316Z,31.20
2018-03-27T19:48:55.877Z,32.47
2018-03-27T19:51:23.378Z,31.40
2018-03-27T19:53:51.459Z,32.63
2018-03-27T19:56:18.923Z,32.80
2018-03-27T19:58:46.580Z,34.60
2018-03-27T20:01:14.096Z,33.13
2018-03-27T20:03:42.452Z,34.00
2018-03-27T20:06:09.958Z,34.47
2018-03-27T20:08:37.467Z,35.77
2018-03-27T20:11:05.094Z,36.37
2018-03-27T20:13:32.579Z,35.97
2018-03-27T20:16:00.855Z,37.97
2018-03-27T20:18:28.546Z,37.50
2018-03-27T20:20:56.052Z,37.37
2018-03-27T20:23:23.536Z,36.30
2018-03-27T20:25:51.043Z,36.80
2018-03-27T20:28:18.525Z,38.73
2018-03-27T20:30:46.031Z,37.53
2018-03-27T20:33:13.516Z,37.93
2018-03-27T20:35:41.004Z,39.47
2018-03-27T20:38:08.524Z,37.57
2018-03-27T20:40:36.012Z,38.43
2018-03-27T20:43:03.525Z,39.90
2018-03-27T20:45:31.011Z,41.17
2018-03-27T20:47:59.264Z,40.43
2018-03-27T20:50:26.793Z,41.53
2018-03-27T20:52:54.264Z,41.23
2018-03-27T20:55:21.874Z,42.50
2018-03-27T20:57:49.371Z,41.10
2018-03-27T21:00:16.877Z,41.00
2018-03-27T21:02:45.174Z,40.67
2018-03-27T21:05:12.675Z,38.97
2018-03-27T21:07:40.939Z,37.80
2018-03-27T21:10:08.449Z,38.30
2018-03-27T21:12:36.716Z,38.73
2018-03-27T21:15:05.045Z,40.23
2018-03-27T21:17:33.276Z,36.87
2018-03-27T21:20:01.513Z,37.47
2018-03-27T21:22:29.011Z,35.37
2018-03-27T21:24:57.251Z,36.70
2018-03-27T21:27:25.336Z,37.17
2018-03-27T21:29:52.806Z,36.63
2018-03-27T21:32:21.057Z,36.97
2018-03-27T21:34:48.508Z,35.67
2018-03-27T21:37:16.112Z,37.73
2018-03-27T21:39:44.412Z,37.80
2018-03-27T21:42:11.900Z,40.23
2018-03-27T21:44:39.394Z,38.63
2018-03-27T21:47:06.995Z,37.20
2018-03-27T21:49:34.556Z,35.93
2018-03-27T21:52:02.038Z,37.70
2018-03-27T21:54:29.493Z,36.03
2018-03-27T21:56:56.995Z,37.43
2018-03-27T21:59:25.233Z,36.17
2018-03-27T22:01:52.781Z,36.93
2018-03-27T22:04:20.280Z,34.97
2018-03-27T22:15:29.362Z,33.70
2018-03-27T22:17:56.928Z,33.20
2018-03-27T22:20:25.321Z,30.53
2018-03-27T22:22:53.652Z,29.03
2018-03-27T22:25:21.294Z,30.23
2018-03-27T22:27:49.074Z,29.70
2018-03-27T22:30:16.721Z,29.07
2018-03-27T22:32:44.259Z,27.83
2018-03-27T22:35:11.950Z,27.13
2018-03-27T22:37:39.484Z,28.83
2018-03-27T22:40:07.081Z,26.70
2018-03-27T22:45:25.306Z,25.97
2018-03-27T22:47:52.766Z,25.93
2018-03-27T22:50:20.253Z,26.03
2018-03-27T22:52:47.754Z,24.60
2018-03-27T22:55:15.999Z,25.07
2018-03-27T22:57:43.956Z,25.27
2018-03-27T23:00:11.434Z,24.40
2018-03-27T23:02:38.916Z,24.17
2018-03-27T23:05:06.392Z,23.97
2018-03-27T23:07:33.919Z,22.83
2018-03-27T23:10:01.405Z,23.30
2018-03-27T23:12:28.905Z,22.73
2018-03-27T23:14:56.400Z,23.23
2018-03-27T23:17:24.007Z,22.57
2018-03-27T23:19:51.510Z,21.00
2018-03-27T23:22:30.753Z,21.37
2018-03-27T23:24:58.221Z,21.90
2018-03-27T23:27:25.868Z,19.93
2018-03-27T23:29:53.332Z,20.30
2018-03-27T23:32:21.596Z,20.50
2018-03-27T23:34:49.078Z,20.77
2018-03-27T23:37:17.316Z,20.20
2018-03-27T23:39:44.801Z,18.53
2018-03-27T23:42:12.398Z,19.07
2018-03-27T23:44:39.905Z,18.93
2018-03-27T23:47:07.456Z,18.13
2018-03-27T23:49:35.649Z,17.20
2018-03-27T23:52:03.889Z,16.83
2018-03-27T23:54:31.438Z,16.73
2018-03-27T23:56:58.908Z,16.83
2018-03-27T23:59:26.494Z,15.90
